Terminal Aerodrome Forecast
Issued by NWS St Louis, MO

Home | Current Version | Previous Version | Text Only | Print | Product List | Glossary On
Versions: 1 2 3 4 5 6 7 8 9 10 11 12 13 14 15 16 17 18 19 20 21 22 23 24 25 26 27
056
FTUS43 KLSX 280109 AAA
TAFCOU
TAF AMD
KCOU 280109Z 2801/2824 33006KT 3SM -DZ BR OVC005
     FM280600 36005KT 4SM BR OVC004
     FM281700 06007KT P6SM BKN015
     FM282100 07008KT P6SM BKN035=

USA.gov is the U.S. government's official web portal to all federal, state and local government web resources and services.